sensor_id;sensor_type;location;lat;lon;timestamp;pressure;altitude;pressure_sealevel;temperature;humidity
44297;BME280;51842;47.450;8.654;2023-04-01T00:01:41;94548.16;;;6.56;86.35
44297;BME280;51842;47.450;8.654;2023-04-01T00:04:07;94547.63;;;6.54;86.57
44297;BME280;51842;47.450;8.654;2023-04-01T00:06:33;94554.22;;;6.56;87.09
44297;BME280;51842;47.450;8.654;2023-04-01T00:08:58;94561.91;;;6.58;86.29
44297;BME280;51842;47.450;8.654;2023-04-01T00:11:25;94555.03;;;6.57;86.51
44297;BME280;51842;47.450;8.654;2023-04-01T00:13:53;94544.97;;;6.54;85.57
44297;BME280;51842;47.450;8.654;2023-04-01T00:16:19;94560.06;;;6.58;85.75
44297;BME280;51842;47.450;8.654;2023-04-01T00:18:47;94578.59;;;6.58;84.98
44297;BME280;51842;47.450;8.654;2023-04-01T00:21:14;94557.69;;;6.62;83.97
44297;BME280;51842;47.450;8.654;2023-04-01T00:23:40;94564.03;;;6.66;84.42
44297;BME280;51842;47.450;8.654;2023-04-01T00:26:05;94565.59;;;6.67;84.42
44297;BME280;51842;47.450;8.654;2023-04-01T00:28:35;94561.66;;;6.64;83.86
44297;BME280;51842;47.450;8.654;2023-04-01T00:31:08;94574.34;;;6.67;84.38
44297;BME280;51842;47.450;8.654;2023-04-01T00:33:35;94577.28;;;6.71;83.61
44297;BME280;51842;47.450;8.654;2023-04-01T00:36:18;94581.50;;;6.72;84.51
44297;BME280;51842;47.450;8.654;2023-04-01T00:38:45;94569.34;;;6.71;84.05
44297;BME280;51842;47.450;8.654;2023-04-01T00:41:14;94568.50;;;6.70;84.01
44297;BME280;51842;47.450;8.654;2023-04-01T00:43:44;94582.28;;;6.72;84.28
44297;BME280;51842;47.450;8.654;2023-04-01T00:46:11;94579.09;;;6.70;83.47
44297;BME280;51842;47.450;8.654;2023-04-01T00:48:45;94574.59;;;6.76;83.83
44297;BME280;51842;47.450;8.654;2023-04-01T00:51:30;94576.22;;;6.77;83.63
44297;BME280;51842;47.450;8.654;2023-04-01T00:53:59;94579.13;;;6.76;83.26
44297;BME280;51842;47.450;8.654;2023-04-01T00:59:42;94579.13;;;6.76;82.35
44297;BME280;51842;47.450;8.654;2023-04-01T01:02:13;94574.34;;;6.78;82.31
44297;BME280;51842;47.450;8.654;2023-04-01T01:04:40;94574.88;;;6.80;82.03
44297;BME280;51842;47.450;8.654;2023-04-01T01:08:01;94570.91;;;6.82;81.24
44297;BME280;51842;47.450;8.654;2023-04-01T01:10:36;94571.44;;;6.84;81.99
44297;BME280;51842;47.450;8.654;2023-04-01T01:13:39;94563.75;;;6.83;82.18
44297;BME280;51842;47.450;8.654;2023-04-01T01:16:44;94571.69;;;6.72;81.65
44297;BME280;51842;47.450;8.654;2023-04-01T01:19:58;94571.16;;;6.76;82.00
44297;BME280;51842;47.450;8.654;2023-04-01T01:26:08;94565.88;;;6.76;81.90
44297;BME280;51842;47.450;8.654;2023-04-01T01:35:53;94559.25;;;6.63;82.26
44297;BME280;51842;47.450;8.654;2023-04-01T01:38:32;94568.53;;;6.65;82.82
44297;BME280;51842;47.450;8.654;2023-04-01T01:41:04;94565.09;;;6.65;82.65
44297;BME280;51842;47.450;8.654;2023-04-01T01:43:39;94570.91;;;6.62;82.89
44297;BME280;51842;47.450;8.654;2023-04-01T01:46:17;94562.69;;;6.63;82.48
44297;BME280;51842;47.450;8.654;2023-04-01T01:48:47;94556.88;;;6.66;83.09
44297;BME280;51842;47.450;8.654;2023-04-01T01:51:18;94557.94;;;6.65;82.53
44297;BME280;51842;47.450;8.654;2023-04-01T01:53:45;94566.69;;;6.66;82.64
44297;BME280;51842;47.450;8.654;2023-04-01T01:56:12;94546.03;;;6.63;82.63
44297;BME280;51842;47.450;8.654;2023-04-01T01:58:51;94557.69;;;6.62;82.55
44297;BME280;51842;47.450;8.654;2023-04-01T02:01:28;94544.19;;;6.63;82.63
44297;BME280;51842;47.450;8.654;2023-04-01T02:03:58;94544.72;;;6.65;82.72
44297;BME280;51842;47.450;8.654;2023-04-01T02:06:32;94547.59;;;6.64;82.57
44297;BME280;51842;47.450;8.654;2023-04-01T02:09:06;94545.25;;;6.62;82.45
44297;BME280;51842;47.450;8.654;2023-04-01T02:11:52;94542.06;;;6.65;81.62
44297;BME280;51842;47.450;8.654;2023-04-01T02:14:50;94529.09;;;6.64;81.36
44297;BME280;51842;47.450;8.654;2023-04-01T02:17:24;94539.69;;;6.59;81.22
44297;BME280;51842;47.450;8.654;2023-04-01T02:19:59;94537.56;;;6.61;80.77
44297;BME280;51842;47.450;8.654;2023-04-01T02:22:39;94543.66;;;6.61;80.92
44297;BME280;51842;47.450;8.654;2023-04-01T02:25:30;94546.56;;;6.60;80.53
44297;BME280;51842;47.450;8.654;2023-04-01T02:28:00;94546.03;;;6.63;80.27
44297;BME280;51842;47.450;8.654;2023-04-01T02:30:34;94543.94;;;6.65;80.37
44297;BME280;51842;47.450;8.654;2023-04-01T02:33:03;94532.56;;;6.64;79.94
44297;BME280;51842;47.450;8.654;2023-04-01T02:35:30;94544.72;;;6.65;80.03
44297;BME280;51842;47.450;8.654;2023-04-01T02:37:56;94537.84;;;6.59;78.61
44297;BME280;51842;47.450;8.654;2023-04-01T02:40:22;94544.19;;;6.58;79.03
44297;BME280;51842;47.450;8.654;2023-04-01T02:42:48;94544.19;;;6.58;78.84
44297;BME280;51842;47.450;8.654;2023-04-01T02:45:14;94546.00;;;6.58;78.93
44297;BME280;51842;47.450;8.654;2023-04-01T02:47:41;94539.94;;;6.62;78.83
44297;BME280;51842;47.450;8.654;2023-04-01T02:50:08;94555.28;;;6.60;79.32
44297;BME280;51842;47.450;8.654;2023-04-01T02:52:35;94544.69;;;6.60;78.80
44297;BME280;51842;47.450;8.654;2023-04-01T02:55:03;94542.59;;;6.62;80.24
44297;BME280;51842;47.450;8.654;2023-04-01T02:57:30;94541.81;;;6.62;82.13
44297;BME280;51842;47.450;8.654;2023-04-01T02:59:56;94534.94;;;6.56;82.15
44297;BME280;51842;47.450;8.654;2023-04-01T03:02:22;94521.66;;;6.45;81.90
44297;BME280;51842;47.450;8.654;2023-04-01T03:04:47;94528.84;;;6.40;82.66
44297;BME280;51842;47.450;8.654;2023-04-01T03:07:13;94525.09;;;6.36;82.67
44297;BME280;51842;47.450;8.654;2023-04-01T03:09:39;94526.69;;;6.32;83.36
44297;BME280;51842;47.450;8.654;2023-04-01T03:12:07;94528.00;;;6.29;84.43
44297;BME280;51842;47.450;8.654;2023-04-01T03:14:32;94531.97;;;6.26;83.68
44297;BME280;51842;47.450;8.654;2023-04-01T03:16:58;94535.41;;;6.22;83.61
44297;BME280;51842;47.450;8.654;2023-04-01T03:19:24;94527.19;;;6.13;82.87
44297;BME280;51842;47.450;8.654;2023-04-01T03:21:50;94522.44;;;6.10;82.36
44297;BME280;51842;47.450;8.654;2023-04-01T03:24:16;94542.00;;;6.09;82.14
44297;BME280;51842;47.450;8.654;2023-04-01T03:26:41;94534.06;;;6.09;82.05
44297;BME280;51842;47.450;8.654;2023-04-01T03:29:07;94535.41;;;6.12;82.00
44297;BME280;51842;47.450;8.654;2023-04-01T03:31:33;94537.78;;;6.08;81.93
44297;BME280;51842;47.450;8.654;2023-04-01T03:33:59;94523.22;;;6.06;81.47
44297;BME280;51842;47.450;8.654;2023-04-01T03:36:25;94529.31;;;6.11;82.00
44297;BME280;51842;47.450;8.654;2023-04-01T03:38:51;94518.47;;;6.13;81.33
44297;BME280;51842;47.450;8.654;2023-04-01T03:41:18;94524.31;;;6.15;81.65
44297;BME280;51842;47.450;8.654;2023-04-01T03:43:45;94517.69;;;6.17;81.24
44297;BME280;51842;47.450;8.654;2023-04-01T03:46:11;94510.53;;;6.13;81.16
44297;BME280;51842;47.450;8.654;2023-04-01T03:48:37;94501.53;;;6.14;80.85
44297;BME280;51842;47.450;8.654;2023-04-01T03:51:07;94523.25;;;6.16;80.45
44297;BME280;51842;47.450;8.654;2023-04-01T03:53:33;94524.56;;;6.23;81.33
44297;BME280;51842;47.450;8.654;2023-04-01T03:56:05;94528.28;;;6.22;80.67
44297;BME280;51842;47.450;8.654;2023-04-01T03:58:31;94524.84;;;6.22;80.15
44297;BME280;51842;47.450;8.654;2023-04-01T04:00:57;94529.06;;;6.23;79.80
44297;BME280;51842;47.450;8.654;2023-04-01T04:03:23;94538.31;;;6.25;80.10
44297;BME280;51842;47.450;8.654;2023-04-01T04:05:49;94545.47;;;6.25;79.33
44297;BME280;51842;47.450;8.654;2023-04-01T04:08:16;94534.09;;;6.24;79.67
44297;BME280;51842;47.450;8.654;2023-04-01T04:10:44;94541.22;;;6.29;80.35
44297;BME280;51842;47.450;8.654;2023-04-01T04:13:10;94544.97;;;6.33;81.54
44297;BME280;51842;47.450;8.654;2023-04-01T04:15:36;94536.75;;;6.24;82.24
44297;BME280;51842;47.450;8.654;2023-04-01T04:18:02;94535.69;;;6.25;82.93
44297;BME280;51842;47.450;8.654;2023-04-01T04:20:27;94528.53;;;6.21;83.86
44297;BME280;51842;47.450;8.654;2023-04-01T04:22:53;94533.00;;;6.20;84.61
44297;BME280;51842;47.450;8.654;2023-04-01T04:25:19;94527.19;;;6.08;82.74
44297;BME280;51842;47.450;8.654;2023-04-01T04:27:45;94536.97;;;6.08;83.74
44297;BME280;51842;47.450;8.654;2023-04-01T04:30:11;94529.03;;;6.08;83.02
44297;BME280;51842;47.450;8.654;2023-04-01T04:32:37;94539.09;;;6.11;82.62
44297;BME280;51842;47.450;8.654;2023-04-01T04:35:04;94526.41;;;6.13;81.72
44297;BME280;51842;47.450;8.654;2023-04-01T04:37:32;94542.03;;;6.14;82.14
44297;BME280;51842;47.450;8.654;2023-04-01T04:39:58;94540.41;;;6.13;81.75
44297;BME280;51842;47.450;8.654;2023-04-01T04:42:24;94536.47;;;6.16;81.52
44297;BME280;51842;47.450;8.654;2023-04-01T04:44:49;94526.16;;;6.19;81.38
44297;BME280;51842;47.450;8.654;2023-04-01T04:47:15;94548.88;;;6.20;80.94
44297;BME280;51842;47.450;8.654;2023-04-01T04:49:41;94543.09;;;6.18;80.46
44297;BME280;51842;47.450;8.654;2023-04-01T04:52:07;94534.88;;;6.20;80.13
44297;BME280;51842;47.450;8.654;2023-04-01T04:54:33;94541.22;;;6.19;80.92
44297;BME280;51842;47.450;8.654;2023-04-01T04:56:59;94552.59;;;6.19;81.79
44297;BME280;51842;47.450;8.654;2023-04-01T04:59:24;94557.38;;;6.17;81.94
44297;BME280;51842;47.450;8.654;2023-04-01T05:01:50;94551.78;;;6.14;82.57
44297;BME280;51842;47.450;8.654;2023-04-01T05:04:16;94551.78;;;6.14;82.84
44297;BME280;51842;47.450;8.654;2023-04-01T05:06:43;94555.22;;;5.99;82.35
44297;BME280;51842;47.450;8.654;2023-04-01T05:09:11;94550.44;;;5.96;82.82
44297;BME280;51842;47.450;8.654;2023-04-01T05:11:36;94559.94;;;5.97;83.33
44297;BME280;51842;47.450;8.654;2023-04-01T05:14:02;94575.00;;;5.96;82.98
44297;BME280;51842;47.450;8.654;2023-04-01T05:16:28;94558.31;;;5.91;82.73
44297;BME280;51842;47.450;8.654;2023-04-01T05:18:55;94577.34;;;5.88;83.25
44297;BME280;51842;47.450;8.654;2023-04-01T05:21:21;94577.59;;;5.86;83.74
44297;BME280;51842;47.450;8.654;2023-04-01T05:23:46;94571.50;;;5.86;83.57
44297;BME280;51842;47.450;8.654;2023-04-01T05:26:15;94570.72;;;5.85;83.62
44297;BME280;51842;47.450;8.654;2023-04-01T05:28:41;94576.00;;;5.85;83.43
44297;BME280;51842;47.450;8.654;2023-04-01T05:31:08;94573.91;;;5.87;83.75
44297;BME280;51842;47.450;8.654;2023-04-01T05:33:35;94574.16;;;5.91;84.17
44297;BME280;51842;47.450;8.654;2023-04-01T05:36:16;94579.19;;;5.87;83.86
44297;BME280;51842;47.450;8.654;2023-04-01T05:38:43;94583.41;;;5.88;84.18
44297;BME280;51842;47.450;8.654;2023-04-01T05:41:11;94592.13;;;5.84;85.65
44297;BME280;51842;47.450;8.654;2023-04-01T05:43:40;94596.06;;;5.81;87.11
44297;BME280;51842;47.450;8.654;2023-04-01T05:46:06;94591.84;;;5.85;88.28
44297;BME280;51842;47.450;8.654;2023-04-01T05:48:34;94588.69;;;5.83;89.05
44297;BME280;51842;47.450;8.654;2023-04-01T05:51:02;94591.03;;;5.74;89.03
44297;BME280;51842;47.450;8.654;2023-04-01T05:53:29;94591.53;;;5.71;89.59
44297;BME280;51842;47.450;8.654;2023-04-01T05:55:55;94590.75;;;5.71;89.59
44297;BME280;51842;47.450;8.654;2023-04-01T05:58:20;94591.28;;;5.68;89.17
44297;BME280;51842;47.450;8.654;2023-04-01T06:00:46;94595.00;;;5.77;89.63
44297;BME280;51842;47.450;8.654;2023-04-01T06:03:12;94596.31;;;5.79;89.96
44297;BME280;51842;47.450;8.654;2023-04-01T06:05:43;94591.31;;;5.78;90.11
44297;BME280;51842;47.450;8.654;2023-04-01T06:08:18;94590.50;;;5.83;89.81
44297;BME280;51842;47.450;8.654;2023-04-01T06:17:41;94588.50;;;6.00;90.66
44297;BME280;51842;47.450;8.654;2023-04-01T06:44:11;94585.44;;;6.54;88.38
44297;BME280;51842;47.450;8.654;2023-04-01T06:56:23;94559.25;;;7.09;82.52
44297;BME280;51842;47.450;8.654;2023-04-01T06:59:16;94556.84;;;7.12;82.62
44297;BME280;51842;47.450;8.654;2023-04-01T07:01:57;94558.69;;;7.27;81.93
44297;BME280;51842;47.450;8.654;2023-04-01T07:04:40;94560.81;;;7.25;80.35
44297;BME280;51842;47.450;8.654;2023-04-01T07:10:17;94575.59;;;7.47;78.67
44297;BME280;51842;47.450;8.654;2023-04-01T07:12:58;94573.19;;;7.45;79.13
44297;BME280;51842;47.450;8.654;2023-04-01T07:15:40;94578.53;;;7.40;79.02
44297;BME280;51842;47.450;8.654;2023-04-01T07:18:21;94567.94;;;7.30;78.70
44297;BME280;51842;47.450;8.654;2023-04-01T07:20:52;94567.69;;;7.31;78.80
44297;BME280;51842;47.450;8.654;2023-04-01T07:23:42;94569.78;;;7.29;78.38
44297;BME280;51842;47.450;8.654;2023-04-01T07:26:22;94574.31;;;7.34;79.26
44297;BME280;51842;47.450;8.654;2023-04-01T07:28:51;94587.81;;;7.37;80.89
44297;BME280;51842;47.450;8.654;2023-04-01T07:42:58;94594.72;;;6.92;85.70
44297;BME280;51842;47.450;8.654;2023-04-01T07:48:55;94603.47;;;6.98;87.60
44297;BME280;51842;47.450;8.654;2023-04-01T07:54:51;94605.06;;;6.99;87.69
44297;BME280;51842;47.450;8.654;2023-04-01T07:58:10;94608.75;;;6.98;87.24
44297;BME280;51842;47.450;8.654;2023-04-01T08:01:01;94616.44;;;7.05;88.82
44297;BME280;51842;47.450;8.654;2023-04-01T08:10:31;94616.44;;;7.05;89.09
44297;BME280;51842;47.450;8.654;2023-04-01T08:13:46;94617.25;;;7.05;90.26
44297;BME280;51842;47.450;8.654;2023-04-01T08:17:16;94621.75;;;6.94;88.64
44297;BME280;51842;47.450;8.654;2023-04-01T08:22:00;94615.09;;;6.92;89.91
44297;BME280;51842;47.450;8.654;2023-04-01T08:24:42;94616.47;;;6.89;90.08
44297;BME280;51842;47.450;8.654;2023-04-01T08:30:06;94621.75;;;6.89;91.31
44297;BME280;51842;47.450;8.654;2023-04-01T08:33:30;94612.47;;;6.87;90.79
44297;BME280;51842;47.450;8.654;2023-04-01T08:36:29;94622.53;;;6.90;89.86
44297;BME280;51842;47.450;8.654;2023-04-01T08:39:15;94618.03;;;6.90;90.32
44297;BME280;51842;47.450;8.654;2023-04-01T09:01:20;94618.28;;;6.89;94.33
44297;BME280;51842;47.450;8.654;2023-04-01T09:06:55;94625.97;;;6.80;93.04
44297;BME280;51842;47.450;8.654;2023-04-01T09:16:19;94624.38;;;6.59;94.56
44297;BME280;51842;47.450;8.654;2023-04-01T09:28:20;94630.19;;;6.66;95.71
44297;BME280;51842;47.450;8.654;2023-04-01T10:54:58;94620.69;;;9.06;82.90
44297;BME280;51842;47.450;8.654;2023-04-01T11:20:31;94610.03;;;9.40;75.20
44297;BME280;51842;47.450;8.654;2023-04-01T11:42:51;94629.94;;;9.13;81.38
44297;BME280;51842;47.450;8.654;2023-04-01T11:52:55;94633.56;;;9.27;80.04
44297;BME280;51842;47.450;8.654;2023-04-01T12:11:39;94631.47;;;8.85;82.21
44297;BME280;51842;47.450;8.654;2023-04-01T12:21:13;94633.59;;;8.88;88.23
44297;BME280;51842;47.450;8.654;2023-04-01T12:40:50;94637.91;;;8.74;87.84
44297;BME280;51842;47.450;8.654;2023-04-01T12:55:54;94614.69;;;8.90;83.74
44297;BME280;51842;47.450;8.654;2023-04-01T12:58:52;94620.09;;;9.14;80.81
44297;BME280;51842;47.450;8.654;2023-04-01T13:01:52;94606.22;;;9.51;77.18
44297;BME280;51842;47.450;8.654;2023-04-01T13:07:57;94605.97;;;10.01;74.01
44297;BME280;51842;47.450;8.654;2023-04-01T13:14:13;94599.94;;;10.57;70.54
44297;BME280;51842;47.450;8.654;2023-04-01T13:35:30;94598.72;;;11.20;64.53
44297;BME280;51842;47.450;8.654;2023-04-01T13:38:10;94599.72;;;10.91;64.04
44297;BME280;51842;47.450;8.654;2023-04-01T13:44:00;94595.75;;;10.70;63.93
44297;BME280;51842;47.450;8.654;2023-04-01T13:46:47;94595.91;;;10.40;64.87
44297;BME280;51842;47.450;8.654;2023-04-01T13:58:54;94594.78;;;10.65;70.81
44297;BME280;51842;47.450;8.654;2023-04-01T14:11:19;94589.34;;;10.52;71.98
44297;BME280;51842;47.450;8.654;2023-04-01T14:26:21;94579.66;;;10.18;67.61
44297;BME280;51842;47.450;8.654;2023-04-01T14:29:15;94583.97;;;10.14;68.41
44297;BME280;51842;47.450;8.654;2023-04-01T14:32:16;94586.97;;;10.07;68.73
44297;BME280;51842;47.450;8.654;2023-04-01T14:38:35;94611.63;;;9.94;74.39
44297;BME280;51842;47.450;8.654;2023-04-01T14:50:27;94658.78;;;8.36;88.52
44297;BME280;51842;47.450;8.654;2023-04-01T14:53:30;94637.69;;;8.16;89.69
44297;BME280;51842;47.450;8.654;2023-04-01T14:56:02;94639.06;;;8.03;92.49
44297;BME280;51842;47.450;8.654;2023-04-01T14:58:57;94636.16;;;7.94;93.27
44297;BME280;51842;47.450;8.654;2023-04-01T15:02:00;94639.09;;;7.87;95.00
44297;BME280;51842;47.450;8.654;2023-04-01T15:07:35;94634.38;;;7.69;95.02
44297;BME280;51842;47.450;8.654;2023-04-01T15:16:46;94647.41;;;7.55;95.36
44297;BME280;51842;47.450;8.654;2023-04-01T15:19:30;94650.28;;;7.64;96.06
44297;BME280;51842;47.450;8.654;2023-04-01T15:28:28;94624.25;;;7.86;89.14
44297;BME280;51842;47.450;8.654;2023-04-01T15:31:40;94633.47;;;8.04;91.15
44297;BME280;51842;47.450;8.654;2023-04-01T15:34:58;94634.91;;;8.36;89.92
44297;BME280;51842;47.450;8.654;2023-04-01T15:40:50;94636.06;;;9.09;88.20
44297;BME280;51842;47.450;8.654;2023-04-01T15:43:55;94621.75;;;9.39;85.19
44297;BME280;51842;47.450;8.654;2023-04-01T15:47:01;94621.97;;;9.42;83.90
44297;BME280;51842;47.450;8.654;2023-04-01T15:52:49;94628.59;;;9.45;79.72
44297;BME280;51842;47.450;8.654;2023-04-01T15:55:37;94636.13;;;9.62;82.80
44297;BME280;51842;47.450;8.654;2023-04-01T16:05:09;94612.00;;;11.39;74.00
44297;BME280;51842;47.450;8.654;2023-04-01T16:22:32;94616.56;;;12.26;68.76
44297;BME280;51842;47.450;8.654;2023-04-01T16:25:40;94619.75;;;12.64;66.31
44297;BME280;51842;47.450;8.654;2023-04-01T16:29:10;94617.44;;;12.71;65.98
44297;BME280;51842;47.450;8.654;2023-04-01T16:32:22;94613.56;;;12.27;67.05
44297;BME280;51842;47.450;8.654;2023-04-01T16:41:20;94623.13;;;10.94;71.60
44297;BME280;51842;47.450;8.654;2023-04-01T16:44:19;94631.53;;;10.45;71.92
44297;BME280;51842;47.450;8.654;2023-04-01T16:46:53;94626.09;;;10.07;73.03
44297;BME280;51842;47.450;8.654;2023-04-01T16:56:22;94647.59;;;9.62;77.71
44297;BME280;51842;47.450;8.654;2023-04-01T17:04:58;94658.97;;;9.04;80.36
44297;BME280;51842;47.450;8.654;2023-04-01T17:11:03;94652.81;;;8.70;81.55
44297;BME280;51842;47.450;8.654;2023-04-01T17:13:47;94663.44;;;8.70;81.96
44297;BME280;51842;47.450;8.654;2023-04-01T17:20:01;94667.00;;;8.50;81.55
44297;BME280;51842;47.450;8.654;2023-04-01T17:28:52;94658.78;;;8.36;83.26
44297;BME280;51842;47.450;8.654;2023-04-01T17:43:49;94670.34;;;8.06;83.92
44297;BME280;51842;47.450;8.654;2023-04-01T17:55:48;94668.00;;;7.79;84.44
44297;BME280;51842;47.450;8.654;2023-04-01T17:59:09;94679.69;;;7.78;83.74
44297;BME280;51842;47.450;8.654;2023-04-01T18:05:45;94671.47;;;7.64;84.02
44297;BME280;51842;47.450;8.654;2023-04-01T18:12:09;94674.16;;;7.49;84.65
44297;BME280;51842;47.450;8.654;2023-04-01T18:18:19;94684.25;;;7.36;85.27
44297;BME280;51842;47.450;8.654;2023-04-01T18:21:41;94686.38;;;7.24;85.78
44297;BME280;51842;47.450;8.654;2023-04-01T18:27:37;94689.00;;;7.14;86.41
44297;BME280;51842;47.450;8.654;2023-04-01T18:30:28;94691.38;;;7.10;86.46
44297;BME280;51842;47.450;8.654;2023-04-01T18:38:44;94699.06;;;6.97;87.57
44297;BME280;51842;47.450;8.654;2023-04-01T18:50:57;94714.84;;;6.61;90.17
44297;BME280;51842;47.450;8.654;2023-04-01T18:59:55;94725.63;;;6.39;91.10
44297;BME280;51842;47.450;8.654;2023-04-01T19:02:48;94736.72;;;6.36;91.25
44297;BME280;51842;47.450;8.654;2023-04-01T19:05:33;94736.97;;;6.29;91.85
44297;BME280;51842;47.450;8.654;2023-04-01T19:08:30;94732.97;;;6.26;91.82
44297;BME280;51842;47.450;8.654;2023-04-01T19:11:36;94734.00;;;6.20;91.96
44297;BME280;51842;47.450;8.654;2023-04-01T19:17:54;94732.41;;;6.19;91.59
44297;BME280;51842;47.450;8.654;2023-04-01T19:30:21;94759.94;;;6.23;91.57
44297;BME280;51842;47.450;8.654;2023-04-01T19:33:50;94757.81;;;6.20;91.50
44297;BME280;51842;47.450;8.654;2023-04-01T20:00:52;94772.13;;;6.24;92.61
44297;BME280;51842;47.450;8.654;2023-04-01T20:03:41;94781.09;;;6.23;92.64
44297;BME280;51842;47.450;8.654;2023-04-01T20:06:55;94781.91;;;6.24;92.19
44297;BME280;51842;47.450;8.654;2023-04-01T20:10:29;94775.78;;;6.18;92.58
44297;BME280;51842;47.450;8.654;2023-04-01T20:16:07;94779.13;;;6.03;92.98
44297;BME280;51842;47.450;8.654;2023-04-01T20:18:55;94778.56;;;5.96;93.34
44297;BME280;51842;47.450;8.654;2023-04-01T20:21:47;94777.16;;;5.89;93.85
44297;BME280;51842;47.450;8.654;2023-04-01T20:24:45;94780.56;;;5.84;94.10
44297;BME280;51842;47.450;8.654;2023-04-01T20:27:33;94776.03;;;5.79;94.58
44297;BME280;51842;47.450;8.654;2023-04-01T20:33:23;94786.00;;;5.67;94.94
44297;BME280;51842;47.450;8.654;2023-04-01T20:40:49;94791.69;;;5.54;96.24
44297;BME280;51842;47.450;8.654;2023-04-01T20:47:41;94796.13;;;5.48;97.36
44297;BME280;51842;47.450;8.654;2023-04-01T20:50:52;94794.03;;;5.50;96.96
44297;BME280;51842;47.450;8.654;2023-04-01T20:59:43;94804.03;;;5.43;97.35
44297;BME280;51842;47.450;8.654;2023-04-01T21:20:27;94815.16;;;5.18;97.63
44297;BME280;51842;47.450;8.654;2023-04-01T22:04:41;94861.84;;;5.40;95.62
44297;BME280;51842;47.450;8.654;2023-04-01T22:07:40;94866.38;;;5.44;95.36
44297;BME280;51842;47.450;8.654;2023-04-01T22:13:16;94865.63;;;5.49;94.95
44297;BME280;51842;47.450;8.654;2023-04-01T22:16:19;94872.22;;;5.51;94.53
44297;BME280;51842;47.450;8.654;2023-04-01T22:19:41;94869.09;;;5.54;93.81
44297;BME280;51842;47.450;8.654;2023-04-01T22:22:25;94877.88;;;5.60;93.67
44297;BME280;51842;47.450;8.654;2023-04-01T22:25:22;94866.00;;;5.63;92.80
44297;BME280;51842;47.450;8.654;2023-04-01T22:27:58;94865.50;;;5.66;92.31
44297;BME280;51842;47.450;8.654;2023-04-01T22:30:36;94870.78;;;5.66;91.82
44297;BME280;51842;47.450;8.654;2023-04-01T22:34:04;94870.34;;;5.74;91.42
44297;BME280;51842;47.450;8.654;2023-04-01T22:40:06;94878.31;;;5.79;88.79
44297;BME280;51842;47.450;8.654;2023-04-01T22:43:00;94892.06;;;5.81;88.36
44297;BME280;51842;47.450;8.654;2023-04-01T22:54:42;94889.50;;;5.91;87.50
44297;BME280;51842;47.450;8.654;2023-04-01T23:05:57;94908.59;;;5.93;88.32
44297;BME280;51842;47.450;8.654;2023-04-01T23:14:59;94907.72;;;5.88;89.39
44297;BME280;51842;47.450;8.654;2023-04-01T23:17:51;94908.16;;;5.79;88.48
44297;BME280;51842;47.450;8.654;2023-04-01T23:21:13;94907.66;;;5.83;89.62
44297;BME280;51842;47.450;8.654;2023-04-01T23:27:40;94908.66;;;5.71;90.08
44297;BME280;51842;47.450;8.654;2023-04-01T23:36:15;94903.34;;;5.71;89.88
44297;BME280;51842;47.450;8.654;2023-04-01T23:38:48;94908.59;;;5.66;90.19
44297;BME280;51842;47.450;8.654;2023-04-01T23:41:31;94904.34;;;5.65;90.59
44297;BME280;51842;47.450;8.654;2023-04-01T23:44:10;94908.59;;;5.66;91.10
44297;BME280;51842;47.450;8.654;2023-04-01T23:46:44;94915.72;;;5.66;91.12
44297;BME280;51842;47.450;8.654;2023-04-01T23:49:33;94915.41;;;5.62;91.04
44297;BME280;51842;47.450;8.654;2023-04-01T23:52:35;94921.78;;;5.66;91.51
44297;BME280;51842;47.450;8.654;2023-04-01T23:57:37;94925.50;;;5.65;93.88
